METAR AND TAF INFORMATION
METAR FOR LGMT
ADDS - METARS form results

(1829 UTC 22 September 2022)
Data provider http://aviationweather.gov/metar/data/
 
METAR text: LGMT 221820Z 02010KT 350V050 9999 FEW025 19/09 Q1016
Conditions at: LGMT (MITILINI , GR) observed 1820 UTC 22 September 2022
Temperature: 19.0°C (66°F)
Dewpoint: 9.0°C (48°F) [RH = 52%]
Pressure (altimeter): 30.00 inches Hg (1016.0 mb)
Winds: from the NNE (20 degrees) at 12 MPH (10 knots; 5.1 m/s)
Visibility: 6 or more miles (10+ km)
Ceiling: at least 12,000 feet AGL
Clouds: few clouds at 2500 feet AGL
Weather: no significant weather observed at this time

METAR text: LGMT 221750Z 02008KT 350V060 9999 FEW025 19/09 Q1016
Conditions at: LGMT (MITILINI , GR) observed 1750 UTC 22 September 2022
Temperature: 19.0°C (66°F)
Dewpoint: 9.0°C (48°F) [RH = 52%]
Pressure (altimeter): 30.00 inches Hg (1016.0 mb)
Winds: from the NNE (20 degrees) at 9 MPH (8 knots; 4.1 m/s)
Visibility: 6 or more miles (10+ km)
Ceiling: at least 12,000 feet AGL
Clouds: few clouds at 2500 feet AGL
Weather: no significant weather observed at this time

Forecast for: LGMT (MITILINI , GR)
Text: TAF LGMT 221700Z 2218/2303 36012KT 9999 FEW020
Forecast period: 1800 UTC 22 September 2022 to 0300 UTC 23 September 2022
Forecast type: FROM: standard forecast or significant change
Winds: from the N (360 degrees) at 14 MPH (12 knots; 6.2 m/s)
Visibility: 6 or more miles (10+ km)
Ceiling: at least 12,000 feet AGL
Clouds: few clouds at 2000 feet AGL
Weather: no significant weather forecast for this period

 AIRPORT MAP

 RUNWAY INFORMATION
Runway 14 Runway length 7894 ft Runway width 148 ft
Runway elevation 57 ft Runway displaced threshold 269 ft Runway heading 148
Runway 32 Runway length 7894 ft Runway width 148 ft
Runway elevation 21 ft Runway displaced threshold 1755 ft Runway heading 328

 AIRPORT FREQUENCIES
Type A/G Name RDO Frequency 563.7 MHZ
Type APP Name APP Frequency 122.1 MHZ
Type TWR Name TWR Frequency 122.1 MHZ

 AIRPORT NEAR NAVIGATION AIDS
Type VOR-DME Name Lesvos Frequency 114200 KHZ
Type NDB Name Lesvos Frequency 397 KHZ
Type VOR-DME Name Mitilini Frequency 109600 KHZ





Powered by Virtual Airlines Manager

Maps by Rafael Santos